Shempston Farm Airstrip

GB-0746 · Ecosse, Royaume-Uni

METAR anciennes GB-0746 · Shempston Farm Airstrip

Tu vois ci-dessous les METAR des derniers jours. Sélectionne une année pour parcourir les METAR plus anciens, à partir de l'année 2007.

23 mai 2024

Temps Code Temps Temp. Vue Base cloud Vent METAR/SPECI
23:20
I
11 °C 10 km+ 800 ft 350° 350° 8 kt METAR EGQS 232220Z 35008KT 9999 SCT003 BKN008 11/11 Q1013 RMK YLO2
22:50
I
11 °C 5 km 600 ft 340° 340° 11 kt METAR EGQS 232150Z 34011KT 5000 BR SCT003 BKN006 11/11 Q1013 RMK YLO2
21:50
L
12 °C 2,5 km 300 ft 350° 350° 10 kt METAR EGQS 232050Z 35010KT 2500 -DZ BR FEW001 BKN003 12/11 Q1013 RMK YLO2
21:32
L
12 °C 800 m 300 ft 010° 010° 8 kt METAR EGQS 232032Z 01008KT 0800 -DZ FG SCT001 BKN003 12/11 Q1013 RMK RED
21:14
L
12 °C 2 km 300 ft 020° 020° 10 kt METAR EGQS 232014Z 02010KT 2000 BR FEW001 BKN003 12/11 Q1013 RMK YLO2
20:50
L
12 °C 4 km 200 ft 020° 020° 13 kt METAR EGQS 231950Z 02013KT 4000 1000NW BR BKN002 OVC004 12/11 Q1013 RMK AMB
19:50
L
12 °C 3,5 km 300 ft 010° 010° 10 kt METAR EGQS 231850Z 01010KT 3500 BR FEW002 BKN003 12/11 Q1013 RMK YLO2
18:50
L
12 °C 4 km 300 ft 010° 010° 10 kt METAR EGQS 231750Z 01010KT 4000 BR FEW002 OVC003 12/11 Q1013 RMK YLO2
17:50
L
12 °C 2,5 km 200 ft 020° 020° 11 kt METAR EGQS 231650Z 02011KT 2500 BR FEW001 OVC002 12/12 Q1013
17:20
L
12 °C 2 km 300 ft 010° 010° 10 kt METAR EGQS 231620Z 01010KT 2000 BR SCT002 BKN003 12/12 Q1012 RMK AMB
16:50
L
12 °C 1,5 km 200 ft 020° 020° 9 kt METAR EGQS 231550Z 02009KT 1500 BR FEW001 BKN002 12/12 Q1012 TEMPO SCT001 RMK AMB TEMPO RED
16:34
L
12 °C 1,2 km 100 ft 020° 020° 10 kt METAR EGQS 231534Z 02010KT 1200 DZ BKN001 12/12 Q1012 TEMPO BKN002 RMK RED TEMPO AMB
16:20
L
12 °C 1,8 km 100 ft 020° 020° 9 kt METAR EGQS 231520Z 02009KT 1800 DZ BKN001 OVC002 12/12 Q1012 TEMPO 1200 +DZ
16:14
L
12 °C 1,3 km 100 ft 020° 020° 9 kt METAR EGQS 231514Z 02009KT 1300 DZ BKN001 OVC002 12/12 Q1012 TEMPO FEW001 BKN002 RMK RED TEMPO AMB
15:50
L
12 °C 1,2 km 200 ft 020° 020° 10 kt METAR EGQS 231450Z 02010KT 1200 DZ FEW001 OVC002 12/12 Q1012 TEMPO 0500 FG BKN001 RMK AMB TEMPO RED
15:31
L
12 °C 3 km 200 ft 020° 020° 9 kt METAR EGQS 231431Z 02009KT 3000 1600NW -DZ BR FEW001 OVC002 12/12 Q1012 TEMPO SCT001 RMK AMB TEMPO RED
15:20
L
12 °C 1,5 km 100 ft 020° 020° 10 kt METAR EGQS 231420Z 02010KT 1500 -DZ BR BKN001 OVC002 12/12 Q1012 TEMPO FEW001 BKN002 RMK RED TEMPO AMB
14:50
L
12 °C 1,2 km 200 ft 010° 010° 10 kt METAR EGQS 231350Z 01010KT 1200 -DZ BR SCT001 OVC002 12/11 Q1012 TEMPO FEW001 BKN002 RMK RED TEMPO AMB
14:40
L
12 °C 1,5 km 200 ft 010° 010° 11 kt METAR EGQS 231340Z 01011KT 1500 -DZ BR OVC002 12/11 Q1012 TEMPO 2000 -DZ BR SCT003 RMK AMB TEMPO YLO2
14:20
L
12 °C 3,5 km 200 ft 360° 360° 11 kt METAR EGQS 231320Z 36011KT 3500 2000NW -RADZ OVC002 12/12 Q1012 TEMPO BKN003 RMK AMB TEMPO YLO2
13:50
I
12 °C 4 km 500 ft 010° 010° 13 kt METAR EGQS 231250Z 01013KT 4000 -RADZ SCT003 OVC005 12/11 Q1012 TEMPO 2000 RADZ RMK YLO2 TEMPO YLO2
13:20
I
12 °C 4 km 500 ft 010° 010° 14 kt METAR EGQS 231220Z 01014KT 4000 -RADZ SCT004 OVC005 12/11 Q1012 RERA REDZ TEMPO 2000 RADZ RMK YLO2 TEMPO YLO2
12:50
L
12 °C 2 km 300 ft 360° 360° 16 kt METAR EGQS 231150Z 36016KT 2000 RADZ BKN003 OVC005 12/11 Q1012 TEMPO 3000 -RADZ SCT005 RMK YLO2 TEMPO YLO1
12:20
I
12 °C 5 km 500 ft 360° 360° 16 kt METAR EGQS 231120Z 36016KT 5000 2000N -RADZ SCT003 OVC005 12/11 Q1011 TEMPO 3000 -RADZ SCT005
12:05
L
11 °C 2 km 300 ft 360° 360° 17 kt METAR EGQS 231105Z 36017KT 2000 RADZ BKN003 OVC005 11/11 Q1011 TEMPO 3000 -RADZ SCT005 RMK YLO2 TEMPO YLO1
11:50
L
11 °C 4,5 km 300 ft 360° 360° 18 kt METAR EGQS 231050Z 36018KT 4500 2500N -RADZ BKN003 OVC006 11/11 Q1011 RERA REDZ TEMPO 2000 RADZ RMK YLO2 TEMPO YLO2
11:40
I
11 °C 3 km 500 ft 360° 360° 17 kt METAR EGQS 231040Z 36017KT 3000 -RADZ FEW003 BKN005 11/11 Q1011 RERA REDZ TEMPO 2000 RADZ SCT004 RMK YLO1 TEMPO YLO2
11:20
I
11 °C 2 km 500 ft 360° 360° 17 kt METAR EGQS 231020Z 36017KT 2000 RADZ SCT003 OVC005 11/11 Q1011 TEMPO 1500 DZ RMK YLO2 TEMPO AMB
10:50
I
11 °C 1,8 km 600 ft 010° 010° 16 kt METAR EGQS 230950Z 01016KT 1800 RADZ SCT003 OVC006 11/10 Q1011 TEMPO 3000 -RADZ SCT005 RMK YLO2 TEMPO YLO1
10:31
I
11 °C 2 km 500 ft 010° 010° 18 kt METAR EGQS 230931Z 01018KT 2000 RADZ SCT003 OVC005 11/10 Q1011 TEMPO 3000 -RADZ SCT005 RMK YLO2 TEMPO YLO1
10:20
I
11 °C 3 km 600 ft 360° 360° 18 kt METAR EGQS 230920Z 36018KT 3000 -RADZ SCT004 OVC006 11/10 Q1011 TEMPO SCT005 RMK YLO2 TEMPO YLO1
09:50
I
11 °C 5 km 500 ft 360° 360° 17 kt METAR EGQS 230850Z 36017KT 5000 2200N -RADZ SCT004 OVC005 11/10 Q1011 RERA REDZ TEMPO 3000 -RADZ SCT005 RMK YLO2 TEMPO YLO1
09:20
I
11 °C 4 km 600 ft 350° 350° 18 kt METAR EGQS 230820Z 35018KT 4000 2000N RADZ SCT004 OVC006 11/10 Q1010 TEMPO 3000 RADZ SCT005 RMK YLO2 TEMPO YLO1
09:08
I
11 °C 2 km 600 ft 350° 350° 17 kt METAR EGQS 230808Z 35017KT 2000 RADZ SCT004 OVC006 11/10 Q1010 TEMPO 3000 RADZ SCT005 RMK YLO2 TEMPO YLO1
08:50
I
11 °C 4,5 km 700 ft 350° 350° 18 kt METAR EGQS 230750Z 35018KT 4500 3000N RADZ SCT005 OVC007 11/10 Q1010 TEMPO SCT004 RMK YLO1 TEMPO YLO2
08:20
I
11 °C 5 km 700 ft 360° 360° 18 kt METAR EGQS 230720Z 36018KT 5000 3000S RADZ SCT006 OVC007 11/10 Q1010 TEMPO SCT004 RMK YLO1 TEMPO YLO2
07:50
I
11 °C 5 km 800 ft 350° 350° 16 kt METAR EGQS 230650Z 35016KT 5000 3000S RADZ SCT006 OVC008 11/10 Q1010 RMK YLO1
07:31
I
11 °C 3 km 600 ft 350° 350° 17 kt METAR EGQS 230631Z 35017KT 3000 -DZ BKN006 OVC007 11/10 Q1010 RMK YLO1
06:50
I
11 °C 2 km 500 ft 350° 350° 17 kt METAR EGQS 230550Z 35017KT 2000 DZ SCT003 OVC005 11/10 Q1009 RMK YLO2
05:50
I
11 °C 2 km 600 ft 360° 360° 18 kt METAR EGQS 230450Z 36018KT 2000 DZ SCT003 OVC006 11/10 Q1009 RMK YLO2
05:06
I
11 °C 4 km 800 ft 350° 350° 18 kt METAR EGQS 230406Z 35018KT 4000 -DZ FEW003 BKN008 11/10 Q1009 RMK GRN
04:50
L
11 °C 2 km 300 ft 350° 350° 16 kt METAR EGQS 230350Z 35016KT 2000 DZ BKN003 BKN006 11/10 Q1009 RMK YLO2
04:32
L
11 °C 2 km 300 ft 350° 350° 15 kt METAR EGQS 230332Z 35015KT 2000 DZ BKN003 OVC006 11/10 Q1009 RMK YLO2
03:50
I
11 °C 8 km 600 ft 350° 350° 17 kt METAR EGQS 230250Z 35017KT 8000 -DZ BKN006 OVC008 11/10 Q1009 RMK YLO1
02:50
I
11 °C 10 km+ 900 ft 360° 360° 15 kt METAR EGQS 230150Z 36015KT 9999 OVC009 11/10 Q1008 RMK GRN
01:50
I
11 °C 4 km 800 ft 360° 360° 14 kt METAR EGQS 230050Z 36014KT 4000 RADZ BKN008 BKN015 11/10 Q1008 RMK GRN
00:50
I
11 °C 4 km 1.500 ft 010° 010° 9 kt METAR EGQS 222350Z 01009KT 4000 -RADZ FEW003 SCT005 BKN015 11/10 Q1008 RMK YLO1
00:20
I
11 °C 3 km 700 ft 010° 010° 14 kt METAR EGQS 222320Z 01014KT 3000 RADZ SCT003 BKN007 11/10 Q1008 RMK YLO2

22 mai 2024

Temps Code Temps Temp. Vue Base cloud Vent METAR/SPECI
23:50
I
12 °C 4 km 1.600 ft 360° 360° 14 kt METAR EGQS 222250Z 36014KT 4000 -RADZ SCT010 OVC016 12/11 Q1008 RMK GRN
22:50
I
12 °C 4 km 2.000 ft 360° 360° 16 kt METAR EGQS 222150Z 36016KT 4000 -RADZ SCT010 BKN020 12/11 Q1008 RMK GRN
21:50
M
12 °C 5 km 1.000 ft 350° 350° 14 kt METAR EGQS 222050Z 35014KT 5000 RA FEW006 BKN010 BKN024 12/11 Q1008 RMK GRN
20:50
I
12 °C 4 km 7.000 ft 350° 350° 15 kt METAR EGQS 221950Z 35015KT 4000 RA FEW006 SCT012 OVC070 12/11 Q1008 RMK GRN
19:50
I
12 °C 4 km 1.100 ft 350° 350° 17 kt METAR EGQS 221850Z 35017KT 4000 RA SCT004 BKN011 12/11 Q1008 RMK YLO2
18:50
M
12 °C 6 km 1.000 ft 360° 360° 15 kt METAR EGQS 221750Z 36015KT 6000 RA SCT006 OVC010 12/11 Q1009 RMK YLO1
18:20
I
12 °C 5 km 800 ft 360° 360° 13 kt METAR EGQS 221720Z 36013KT 5000 RA FEW006 BKN008 12/11 Q1009 TEMPO 3000 +RA SCT006 RMK GRN TEMPO YLO1
17:50
I
12 °C 5 km 500 ft 020° 020° 7 kt METAR EGQS 221650Z 02007KT 5000 4000NW +RA BKN005 OVC012 12/11 Q1010 TEMPO 5000 RA FEW005 BKN010 RMK YLO1 TEMPO GRN
17:41
I
12 °C 3 km 500 ft 030° 030° 9 kt METAR EGQS 221641Z 03009KT 3000 +RA BKN005 12/11 Q1010 TEMPO 5000 BKN007 RMK YLO1 TEMPO GRN
17:38
I
13 °C 5 km 600 ft 030° 030° 9 kt METAR EGQS 221638Z 03009KT 5000 +RA BKN006 13/12 Q1010 TEMPO BKN007 RMK YLO1 TEMPO GRN
17:20
M
13 °C 6 km 1.100 ft 010° 010° 9 kt METAR EGQS 221620Z 01009KT 6000 -RA SCT004 OVC011 13/12 Q1010 BECMG FEW003 OVC011 RMK YLO2 BECMG GRN
16:50
L
12 °C 5 km 400 ft 360° 360° 6 kt METAR EGQS 221550Z 36006KT 5000 -RA BKN004 12/11 Q1009 BECMG BKN005 RMK YLO2 BECMG YLO1
16:20
L
12 °C 4 km 300 ft 360° 360° 5 kt METAR EGQS 221520Z 36005KT 4000 -RA BKN003 OVC006 12/11 Q1010 BECMG 5000 BR BKN005
15:50
L
12 °C 5 km 300 ft 040° 040° 4 kt METAR EGQS 221450Z 04004KT 5000 -RA BKN003 OVC006 12/11 Q1010 BECMG BKN005 RMK YLO2 BECMG YLO1
15:20
L
12 °C 5 km 300 ft 040° 040° 4 kt METAR EGQS 221420Z 04004KT 5000 BR OVC003 12/11 Q1010 BECMG BKN005 RMK YLO2 BECMG YLO1
14:50
L
12 °C 5 km 300 ft 020° 020° 4 kt METAR EGQS 221350Z 02004KT 5000 3000N BR OVC003 12/11 Q1010 BECMG 5000 BR BKN005 RMK YLO2 BECMG YLO1
14:20
L
12 °C 6 km 300 ft 010° 010° 4 kt METAR EGQS 221320Z 01004KT 6000 2000NW BR FEW002 OVC003 12/11 Q1011 BECMG 3000 BR BKN005 RMK YLO2 BECMG YLO1
14:04
L
12 °C 1,2 km 200 ft 050° 050° 5 kt METAR EGQS 221304Z 05005KT 1200 BR OVC002 12/11 Q1011 BECMG 3000 BR BKN005 RMK AMB BECMG YLO1
13:50
L
12 °C 700 m 200 ft 040° 040° 5 kt METAR EGQS 221250Z 04005KT 0700 -DZ FG SCT001 OVC002 12/11 Q1011 TEMPO 1500 BR VCFG SCT002 RMK RED TEMPO AMB
13:33
L
12 °C 3 km 200 ft 050° 050° 5 kt METAR EGQS 221233Z 05005KT 3000 1300NW -DZ BR VCFG FEW001 BKN002 12/11 Q1011 TEMPO 0700 -DZ FG SCT001 RMK AMB TEMPO RED
13:20
L
11 °C 700 m 200 ft 040° 040° 5 kt METAR EGQS 221220Z 04005KT 0700 -DZ FG SCT001 OVC002 11/11 Q1011 TEMPO 1500 BR VCFG SCT002 RMK RED TEMPO AMB
13:02
L
12 °C 700 m 100 ft 020° 020° 4 kt METAR EGQS 221202Z 02004KT 0700 -DZ FG OVC001 12/11 Q1011 TEMPO 1500 BR VCFG SCT002 RMK RED TEMPO AMB
12:50
L
11 °C 4,5 km 200 ft 020° 020° 4 kt METAR EGQS 221150Z 02004KT 4500 1500NW -DZ BR VCFG FEW001 BKN002 11/11 Q1011 REDZ TEMPO 0700 -DZ FG SCT001 RMK AMB TEMPO RED
12:41
L
12 °C 1,5 km 200 ft 020° 020° 4 kt METAR EGQS 221141Z 02004KT 1500 -DZ BR FEW001 BKN002 12/11 Q1011 TEMPO 700 FG SCT001 RMK AMB TEMPO RED
12:20
L
11 °C 200 m 200 ft 020° 020° 5 kt METAR EGQS 221120Z 02005KT 0200 DZ FG SCT001 OVC002 11/11 Q1011 TEMPO 1500 BR VCFG SCT002
11:50
L
11 °C 300 m 100 ft 030° 030° 4 kt METAR EGQS 221050Z 03004KT 0300 -DZ FG BKN001 OVC002 11/11 Q1011 TEMPO 1500 BR VCFG SCT002 RMK RED TEMPO AMB
11:20
L
11 °C 500 m 100 ft 020° 020° 5 kt METAR EGQS 221020Z 02005KT 0500 -DZ FG BKN001 OVC002 11/10 Q1011 TEMPO 1500 BR VCFG SCT003 RMK RED TEMPO AMB
10:58
L
11 °C 700 m 100 ft 020° 020° 6 kt METAR EGQS 220958Z 02006KT 0700 FG OVC001 11/10 Q1011 TEMPO 1500 BR VCFG SCT003 RMK RED TEMPO AMB
10:50
L
12 °C 4 km 300 ft 360° 360° 6 kt METAR EGQS 220950Z 36006KT 4000 1500NW BR VCFG FEW001 SCT002 OVC003 12/11 Q1011 TEMPO 700 FG SCT001 RMK AMB TEMPO RED
10:39
L
12 °C 1,5 km 400 ft 360° 360° 7 kt METAR EGQS 220939Z 36007KT 1500 BR VCFG FEW001 SCT002 OVC004 12/11 Q1011 TEMPO 700 FG SCT001 RMK AMB TEMPO RED
10:28
L
13 °C 150 m 100 ft 330° 330° 6 kt METAR EGQS 220928Z 33006KT 0150 FG BKN001 OVC002 13/12 Q1011 TEMPO 1500 BR VCFG SCT003 RMK RED TEMPO AMB
10:20
L
13 °C 400 m 200 ft 320° 320° 7 kt METAR EGQS 220920Z 32007KT 0400 FG FEW001 BKN002 13/12 Q1011 TEMPO 1500 BR VCFG SCT003 RMK RED TEMPO AMB
09:50
I
13 °C 5 km 600 ft 270° 270° 3 kt METAR EGQS 220850Z 27003KT 5000 1500NW BR VCFG FEW002 SCT003 BKN006 13/12 Q1011 TEMPO 700 FG SCT001 RMK AMB TEMPO RED
09:34
I
13 °C 3,5 km 600 ft 260° 260° 4 kt METAR EGQS 220834Z 26004KT 3500 1500NW BR VCFG FEW001 SCT003 BKN006 13/12 Q1011 TEMPO 700 FG SCT001 RMK AMB TEMPO RED
09:26
I
13 °C 4 km - 250° 250° 3 kt METAR EGQS 220826Z 25003KT 4000 2000N BR VCFG FEW001 SCT003 13/12 Q1011 TEMPO 700 FG SCT001 RMK YLO2 TEMPO RED
09:20
L
13 °C 4 km 300 ft 260° 260° 3 kt METAR EGQS 220820Z 26003KT 4000 1500NW BR VCFG FEW001 SCT002 BKN003 13/12 Q1011 TEMPO 700 FG SCT001 RMK AMB TEMPO RED
09:04
L
12 °C 3 km 200 ft 290° 290° 6 kt METAR EGQS 220804Z 29006KT 3000 1500NW FG FEW001 BKN002 12/12 Q1011 TEMPO 700 FG SCT001 RMK AMB TEMPO RED
09:01
L
12 °C 700 m 200 ft 290° 290° 6 kt METAR EGQS 220801Z 29006KT 0700 FG SCT001 BKN002 12/12 Q1011 TEMPO 1000 BR VCFG FEW001 RMK RED TEMPO AMB
08:50
L
12 °C 700 m 200 ft 290° 290° 4 kt METAR EGQS 220750Z 29004KT 0700 FG FEW001 BKN002 12/12 Q1011 TEMPO SCT001 RMK RED TEMPO RED
08:40
L
12 °C 700 m 200 ft 310° 310° 5 kt METAR EGQS 220740Z 31005KT 0700 FG FEW001 OVC002 12/11 Q1011 TEMPO SCT001 RMK RED TEMPO RED
08:26
L
12 °C 400 m 300 ft 300° 300° 5 kt METAR EGQS 220726Z 30005KT 0400 FG SCT001 OVC003 12/11 Q1011 NOSIG RMK RED RED
08:20
L
12 °C 1,2 km 300 ft 310° 310° 6 kt METAR EGQS 220720Z 31006KT 1200 BR VCFG SCT001 BKN003 12/12 Q1011 TEMPO 800 FG RMK RED TEMPO RED
07:50
L
12 °C 200 m 100 ft 320° 320° 6 kt METAR EGQS 220650Z 32006KT 0200 FG OVC001 12/11 Q1011 NOSIG RMK RED RED
06:50
L
12 °C 300 m 100 ft 290° 290° 3 kt METAR EGQS 220550Z 29003KT 0300 FG OVC001 12/11 Q1011 RMK RED
05:50
L
11 °C 600 m 100 ft 260° 260° 4 kt METAR EGQS 220450Z 26004KT 0600 FG OVC001 11/10 Q1010 RMK RED
04:50
L
11 °C 500 m 200 ft 240° 240° 4 kt METAR EGQS 220350Z 24004KT 0500 FG SCT001 OVC002 11/10 Q1011 RMK RED
04:13
L
10 °C 600 m - 250° 250° 2 kt METAR EGQS 220313Z 25002KT 0600 FG SCT002 10/09 Q1010 RMK RED
03:50
M
11 °C 7 km 11.000 ft 010° 010° 1 kt METAR EGQS 220250Z 01001KT 7000 1500N HZ VCFG BKN110 11/10 Q1010 TEMPO BKN004 RMK AMB TEMPO AMB
02:50
V
13 °C 10 km+ 10.000 ft 090° 090° 2 kt METAR EGQS 220150Z 09002KT 9999 7000NW HZ BKN100 13/11 Q1011 TEMPO 4000 BR BKN004 RMK WHT TEMPO YLO2
01:50
V
13 °C 10 km+ - 110° 110° 2 kt METAR EGQS 220050Z 11002KT CAVOK 13/11 Q1011 TEMPO 4000 BR BKN004 RMK BLU TEMPO YLO2
00:50
V
13 °C 10 km+ - 110° 110° 7 kt METAR EGQS 212350Z 11007KT CAVOK 13/11 Q1011 TEMPO 4000 BR BKN004 RMK BLU TEMPO YLO2

21 mai 2024

Temps Code Temps Temp. Vue Base cloud Vent METAR/SPECI
23:50
V
12 °C 10 km+ 10.000 ft 260° 260° 1 kt METAR EGQS 212250Z 26001KT 9999 7000NW HZ FEW067 BKN100 12/11 Q1011 TEMPO 4000 BR BKN004 RMK WHT TEMPO YLO2
22:50
V
12 °C 10 km+ - 310° 310° 2 kt METAR EGQS 212150Z 31002KT CAVOK 12/10 Q1011 TEMPO 4000 BR BKN004 RMK BLU TEMPO YLO2
21:50
V
12 °C 10 km+ - 010° 010° 3 kt METAR EGQS 212050Z 01003KT CAVOK 12/11 Q1011 TEMPO 4000 BR BKN004 RMK BLU TEMPO YLO2
20:50
V
14 °C 10 km+ 9.500 ft 320° 320° 3 kt METAR EGQS 211950Z 32003KT 9999 HZ BKN095 14/11 Q1011 TEMPO 4000 BR BKN005 RMK BLU TEMPO YLO2
19:50
V
18 °C 10 km+ 7.500 ft 140° 140° 8 kt METAR EGQS 211850Z 14008KT 9999 FEW040 BKN075 18/12 Q1010 NOSIG RMK BLU BLU
18:50
V
19 °C 10 km+ 9.000 ft 120° 120° 11 kt METAR EGQS 211750Z 12011KT 9999 FEW040 BKN090 19/12 Q1010 NOSIG RMK BLU BLU
17:50
V
16 °C 10 km+ 10.000 ft 090° 090° 12 kt METAR EGQS 211650Z 09012KT 9999 FEW040 BKN100 16/10 Q1010 NOSIG RMK BLU BLU
17:20
V
15 °C 10 km+ 11.000 ft 080° 080° 14 kt METAR EGQS 211620Z 08014KT 9999 FEW040 BKN110 15/11 Q1010 TEMPO 7000 SHRA SCT020 RMK BLU TEMPO WHT
16:50
V
14 °C 10 km+ 12.000 ft 090° 090° 15 kt METAR EGQS 211550Z 09015KT 9999 FEW040 BKN120 14/10 Q1010 TEMPO 7000 SHRA SCT020 RMK BLU TEMPO WHT
16:20
V
12 °C 10 km+ - 090° 090° 16 kt METAR EGQS 211520Z 09016KT 9999 FEW003 SCT140 12/10 Q1011 TEMPO 7000 SHRA SCT030 RMK BLU TEMPO WHT
15:50
V
13 °C 10 km+ - 090° 090° 16 kt METAR EGQS 211450Z 09016KT CAVOK 13/10 Q1011 NOSIG RMK BLU BLU
15:20
V
13 °C 10 km+ - 080° 080° 16 kt METAR EGQS 211420Z 08016KT CAVOK 13/10 Q1011 NOSIG RMK BLU BLU
14:50
V
13 °C 10 km+ - 090° 090° 15 kt METAR EGQS 211350Z 09015KT CAVOK 13/10 Q1011 NOSIG RMK BLU BLU
14:20
V
12 °C 8 km - 080° 080° 13 kt METAR EGQS 211320Z 08013KT 8000 VCFG FEW001 SCT100 12/09 Q1012 NOSIG RMK BLU BLU
13:50
V
12 °C 10 km+ 11.000 ft 090° 090° 16 kt METAR EGQS 211250Z 09016KT 9999 FEW000 SCT064 BKN110 12/10 Q1012 NOSIG RMK BLU BLU
13:36
V
12 °C 10 km+ 8.500 ft 090° 090° 15 kt METAR EGQS 211236Z 09015KT 9999 5000NW VCFG SCT064 BKN085 12/10 Q1012 TEMPO 9999 NSW RMK WHT TEMPO BLU
13:28
V
12 °C 10 km+ 6.400 ft 090° 090° 15 kt METAR EGQS 211228Z 09015KT 9999 3000NW VCFG FEW000 BKN064 12/10 Q1012 TEMPO 9999 NSW RMK YLO1 TEMPO BLU
13:20
V
12 °C 10 km+ - 080° 080° 15 kt METAR EGQS 211220Z 08015KT 9999 1500NW VCFG FEW000 SCT060 12/10 Q1012 TEMPO 9999 NSW RMK AMB TEMPO BLU
13:04
V
13 °C 10 km+ - 090° 090° 14 kt METAR EGQS 211204Z 09014KT 9999 1500N VCFG FEW000 SCT075 13/10 Q1012 TEMPO 9999 NSW RMK AMB TEMPO BLU
12:50
V
13 °C 10 km+ 9.600 ft 070° 070° 14 kt METAR EGQS 211150Z 07014KT 9999 5000NW FEW003 BKN096 13/10 Q1012 TEMPO 2000 BR SCT003 RMK WHT TEMPO YLO2
12:20
V
14 °C 10 km+ - 080° 080° 15 kt METAR EGQS 211120Z 08015KT CAVOK 14/10 Q1012 NOSIG
11:50
V
14 °C 10 km+ - 080° 080° 11 kt METAR EGQS 211050Z 08011KT CAVOK 14/08 Q1013 NOSIG RMK BLU BLU
11:20
V
14 °C 10 km+ - 050° 050° 9 kt METAR EGQS 211020Z 05009KT CAVOK 14/08 Q1013 NOSIG RMK BLU BLU
10:50
V
13 °C 10 km+ - 040° 040° 8 kt METAR EGQS 210950Z 04008KT CAVOK 13/06 Q1013 NOSIG RMK BLU BLU
10:20
V
13 °C 10 km+ - 070° 070° 7 kt METAR EGQS 210920Z 07007KT CAVOK 13/07 Q1013 NOSIG RMK BLU BLU
09:50
V
12 °C 10 km+ - 080° 080° 7 kt METAR EGQS 210850Z 08007KT CAVOK 12/05 Q1014 NOSIG RMK BLU BLU
09:20
V
13 °C 10 km+ - 070° 070° 7 kt METAR EGQS 210820Z 07007KT CAVOK 13/06 Q1014 NOSIG RMK BLU BLU
08:50
V
14 °C 10 km+ - 110° 110° 2 kt METAR EGQS 210750Z 11002KT CAVOK 14/06 Q1014 NOSIG RMK BLU BLU
08:20
V
13 °C 10 km+ - 150° 150° 2 kt METAR EGQS 210720Z 15002KT CAVOK 13/07 Q1014 NOSIG RMK BLU BLU
07:50
V
11 °C 10 km+ - 190° 190° 2 kt METAR EGQS 210650Z 19002KT 9999 SKC 11/08 Q1014 NOSIG RMK BLU BLU
06:50
V
8 °C 10 km+ - 140° 140° 2 kt METAR EGQS 210550Z 14002KT CAVOK 08/05 Q1014 RMK BLU
Signaler les modifications